Time;durP1;ratioP1;P1;durP2;ratioP2;P2;SDS_P1;SDS_P2;PMS_P1;PMS_P2;Temp;Humidity;BMP_temperature;BMP_pressure;BME280_temperature;BME280_humidity;BME280_pressure;Samples;Min_cycle;Max_cycle;Signal;HPM_P1;HPM_P2
2023/06/18 00:00:00;;;;;;;7.28;5.80;;;;;;;18.39;72.66;100136.03;5125504;27;20043;-68
2023/06/18 00:02:25;;;;;;;6.70;5.95;;;;;;;18.38;72.29;100141.66;5123843;27;20023;-67
2023/06/18 00:04:51;;;;;;;8.20;6.57;;;;;;;18.39;72.39;100138.75;5120931;27;20083;-68
2023/06/18 00:07:16;;;;;;;6.65;5.95;;;;;;;18.39;72.63;100143.34;5112763;27;20108;-67
2023/06/18 00:09:42;;;;;;;6.63;5.43;;;;;;;18.31;72.92;100124.41;5113668;27;20031;-68
2023/06/18 00:12:08;;;;;;;8.00;5.55;;;;;;;18.37;72.93;100138.09;5115785;27;20072;-68
2023/06/18 00:14:34;;;;;;;9.23;5.82;;;;;;;18.37;73.13;100148.97;5118052;27;20568;-68
2023/06/18 00:16:59;;;;;;;6.60;5.85;;;;;;;18.33;72.96;100133.19;5111087;27;20102;-68
2023/06/18 00:19:25;;;;;;;8.57;5.68;;;;;;;18.39;73.20;100146.06;5114009;27;20193;-67
2023/06/18 00:21:50;;;;;;;8.27;6.13;;;;;;;18.39;73.13;100136.03;5118146;27;20157;-68
2023/06/18 00:24:15;;;;;;;7.93;5.22;;;;;;;18.35;73.61;100137.44;5122266;27;20051;-68
2023/06/18 00:26:41;;;;;;;9.77;6.25;;;;;;;18.34;73.89;100137.63;5129130;27;20089;-68
2023/06/18 00:29:06;;;;;;;6.22;5.57;;;;;;;18.28;74.08;100127.50;5120488;27;20030;-68
2023/06/18 00:31:32;;;;;;;8.07;6.25;;;;;;;18.28;74.14;100136.47;5125557;27;20031;-68
2023/06/18 00:34:05;;;;;;;7.00;5.80;;;;;;;18.29;74.41;100127.31;5124656;27;20502;-68
2023/06/18 00:36:31;;;;;;;9.77;6.53;;;;;;;18.27;74.35;100132.09;5117829;27;20591;-68
2023/06/18 00:38:57;;;;;;;8.05;6.20;;;;;;;18.23;74.72;100117.22;5117310;27;20402;-67
2023/06/18 00:41:27;;;;;;;7.25;5.65;;;;;;;18.27;74.91;100133.94;5117579;27;20020;-67
2023/06/18 00:43:53;;;;;;;5.90;5.30;;;;;;;18.27;74.79;100133.94;5117158;27;20019;-68
2023/06/18 00:46:20;;;;;;;9.27;6.60;;;;;;;18.25;74.76;100136.84;5115049;27;20111;-67
2023/06/18 00:48:45;;;;;;;8.90;7.07;;;;;;;18.26;74.72;100135.84;5117932;27;20026;-68
2023/06/18 00:51:12;;;;;;;8.45;6.88;;;;;;;18.21;74.84;100132.00;5119180;27;20028;-67
2023/06/18 00:53:38;;;;;;;7.70;6.18;;;;;;;18.23;74.81;100136.22;5115437;27;20087;-67
2023/06/18 00:56:04;;;;;;;6.95;5.97;;;;;;;18.24;74.93;100137.88;5125710;27;20031;-68
2023/06/18 00:58:31;;;;;;;8.60;6.25;;;;;;;18.22;75.05;100129.09;5123185;27;20054;-68
2023/06/18 01:00:57;;;;;;;8.02;5.95;;;;;;;18.21;75.09;100138.25;5119367;27;20461;-67
2023/06/18 01:03:25;;;;;;;7.20;6.50;;;;;;;18.20;75.09;100144.72;5118383;27;20390;-67
2023/06/18 01:05:58;;;;;;;7.38;6.10;;;;;;;18.17;75.31;100138.81;5123727;27;20023;-69
2023/06/18 01:08:24;;;;;;;8.77;6.75;;;;;;;18.11;75.51;100124.13;5126576;27;20070;-68
2023/06/18 01:11:06;;;;;;;8.45;7.15;;;;;;;18.13;75.32;100132.94;5125684;27;20401;-68
2023/06/18 01:13:36;;;;;;;9.57;7.05;;;;;;;18.01;75.74;100118.16;5122567;27;20496;-67
2023/06/18 01:16:05;;;;;;;11.90;6.53;;;;;;;17.95;75.81;100116.16;5117060;27;20035;-67
2023/06/18 01:18:39;;;;;;;6.95;6.00;;;;;;;18.00;76.05;100130.03;5117787;27;20091;-67
2023/06/18 01:21:06;;;;;;;;;;;;;;;17.98;76.16;100134.78;5114193;27;20060;-68
2023/06/18 01:23:49;;;;;;;7.97;6.20;;;;;;;17.96;76.23;100131.44;5110519;27;19923;-68
2023/06/18 01:26:21;;;;;;;11.50;6.60;;;;;;;17.95;77.05;100130.59;5117464;27;20027;-67
2023/06/18 01:28:58;;;;;;;8.98;6.55;;;;;;;17.85;77.00;100119.19;5112384;27;20062;-68
2023/06/18 01:31:24;;;;;;;7.80;7.00;;;;;;;17.89;77.18;100134.03;5115784;27;20018;-68
2023/06/18 01:33:51;;;;;;;9.27;6.60;;;;;;;17.82;76.96;100130.41;5109340;27;20053;-68
2023/06/18 01:36:24;;;;;;;8.50;6.50;;;;;;;17.85;77.43;100143.59;5115640;27;20023;-68
2023/06/18 01:38:57;;;;;;;8.50;5.70;;;;;;;17.82;77.20;100140.41;5116878;27;20075;-68
2023/06/18 01:41:27;;;;;;;7.35;6.65;;;;;;;17.81;77.69;100146.84;5111700;27;20085;-67
2023/06/18 01:44:00;;;;;;;8.20;7.13;;;;;;;17.78;77.38;100142.66;5115556;27;20023;-68
2023/06/18 01:46:28;;;;;;;6.82;6.13;;;;;;;17.77;77.62;100145.56;5113326;27;20554;-67
2023/06/18 01:49:04;;;;;;;9.52;7.22;;;;;;;17.61;77.31;100132.16;5114558;27;20046;-68
2023/06/18 01:51:31;;;;;;;7.18;6.47;;;;;;;17.71;77.72;100152.53;5118881;27;20118;-67
2023/06/18 01:53:59;;;;;;;8.35;6.28;;;;;;;17.68;77.78;100160.22;5110415;27;20032;-68
2023/06/18 01:56:28;;;;;;;7.35;6.57;;;;;;;17.58;77.84;100149.59;5112537;27;20020;-68
2023/06/18 01:58:54;;;;;;;7.93;7.07;;;;;;;17.60;78.16;100154.84;5109773;27;20023;-68
2023/06/18 02:01:20;;;;;;;8.30;7.30;;;;;;;17.62;78.33;100153.66;5117293;27;20495;-67
2023/06/18 02:03:46;;;;;;;9.85;7.00;;;;;;;17.62;78.42;100158.22;5120566;27;20398;-68
2023/06/18 02:06:12;;;;;;;8.75;7.18;;;;;;;17.51;78.89;100142.41;5112911;27;20034;-68
2023/06/18 02:08:37;;;;;;;9.07;6.90;;;;;;;17.56;79.07;100157.09;5113746;27;20032;-68
2023/06/18 02:11:03;;;;;;;8.65;7.35;;;;;;;17.50;79.11;100168.69;5115207;27;20057;-67
2023/06/18 02:13:28;;;;;;;7.60;6.90;;;;;;;17.45;79.54;100162.94;5111283;28;20041;-68
2023/06/18 02:15:54;;;;;;;9.98;7.22;;;;;;;17.33;79.71;100148.13;5110677;27;20031;-66
2023/06/18 02:18:19;;;;;;;7.88;6.07;;;;;;;17.35;79.63;100153.38;5111576;27;20098;-67
2023/06/18 02:20:45;;;;;;;8.15;7.05;;;;;;;17.30;79.15;100144.91;5109830;27;20034;-68
2023/06/18 02:23:11;;;;;;;9.48;6.28;;;;;;;17.37;78.80;100156.72;5114875;28;20284;-68
2023/06/18 02:25:36;;;;;;;8.27;6.45;;;;;;;17.35;78.92;100166.91;5123712;28;20034;-68
2023/06/18 02:28:03;;;;;;;9.77;7.07;;;;;;;17.35;78.71;100161.50;5120271;28;20107;-68
2023/06/18 02:30:29;;;;;;;9.10;7.53;;;;;;;17.34;79.02;100167.91;5120571;28;20027;-68
2023/06/18 02:32:59;;;;;;;8.43;7.07;;;;;;;17.35;78.88;100161.50;5127227;27;20019;-68
2023/06/18 02:35:26;;;;;;;11.18;6.60;;;;;;;17.24;78.96;100151.91;5124116;27;20023;-67
2023/06/18 02:37:51;;;;;;;8.40;7.35;;;;;;;17.25;79.21;100161.72;5108549;28;20031;-68
2023/06/18 02:40:17;;;;;;;7.00;6.30;;;;;;;17.30;79.56;100172.03;5121187;28;20031;-67
2023/06/18 02:42:48;;;;;;;7.75;6.22;;;;;;;17.25;79.52;100166.31;5111837;27;20513;-68
2023/06/18 02:45:16;;;;;;;9.45;7.00;;;;;;;17.25;79.73;100169.84;5115239;27;20057;-68
2023/06/18 02:47:42;;;;;;;9.05;6.82;;;;;;;17.23;79.61;100173.78;5123806;27;20058;-67
2023/06/18 02:50:08;;;;;;;10.35;7.13;;;;;;;17.23;79.76;100182.75;5116757;27;20479;-67
2023/06/18 02:52:33;;;;;;;7.15;6.45;;;;;;;17.21;79.66;100183.94;5114684;27;20061;-67
2023/06/18 02:54:59;;;;;;;8.07;7.18;;;;;;;17.15;79.75;100179.28;5115085;27;20435;-68
2023/06/18 02:57:25;;;;;;;10.90;7.28;;;;;;;17.16;79.62;100184.47;5123009;27;20038;-67
2023/06/18 02:59:50;;;;;;;8.73;7.38;;;;;;;17.15;80.26;100192.81;5114893;27;20035;-67
2023/06/18 03:02:16;;;;;;;9.55;6.47;;;;;;;17.06;80.40;100174.91;5117839;27;20109;-68
2023/06/18 03:04:41;;;;;;;11.32;7.50;;;;;;;17.13;80.40;100181.31;5121945;27;20064;-67
2023/06/18 03:07:07;;;;;;;7.72;6.95;;;;;;;17.11;80.14;100183.34;5121289;27;20422;-68
2023/06/18 03:09:32;;;;;;;8.55;7.47;;;;;;;17.12;80.20;100185.88;5112879;27;20035;-67
2023/06/18 03:11:58;;;;;;;9.65;7.35;;;;;;;17.11;80.64;100188.75;5122523;27;20023;-68
2023/06/18 03:14:24;;;;;;;10.95;7.35;;;;;;;17.02;80.52;100168.16;5123969;27;20094;-68
2023/06/18 03:16:50;;;;;;;7.70;6.88;;;;;;;17.01;80.59;100172.75;5122022;27;20424;-68
2023/06/18 03:19:15;;;;;;;9.60;6.93;;;;;;;17.09;80.45;100186.22;5121149;27;20024;-67
2023/06/18 03:21:41;;;;;;;9.88;7.25;;;;;;;17.09;80.45;100190.81;5128503;27;20061;-68
2023/06/18 03:24:06;;;;;;;9.93;7.68;;;;;;;17.09;80.80;100188.13;5120168;27;20035;-68
2023/06/18 03:26:36;;;;;;;11.15;7.32;;;;;;;17.02;81.00;100179.00;5116635;27;20478;-67
2023/06/18 03:29:04;;;;;;;6.82;6.15;;;;;;;17.06;81.07;100197.44;5112239;27;20031;-68
2023/06/18 03:31:32;;;;;;;8.60;6.90;;;;;;;17.06;81.17;100194.72;5120381;27;20378;-69
2023/06/18 03:34:01;;;;;;;7.85;6.60;;;;;;;17.04;81.25;100193.22;5115459;27;20379;-68
2023/06/18 03:36:31;;;;;;;10.13;6.70;;;;;;;17.02;81.15;100193.41;5120451;27;20398;-68
2023/06/18 03:38:57;;;;;;;7.22;6.07;;;;;;;16.98;81.03;100185.78;5119492;27;20058;-68
2023/06/18 03:41:22;;;;;;;9.15;6.32;;;;;;;17.11;81.31;100210.44;5118338;27;20063;-68
2023/06/18 03:43:48;;;;;;;9.10;7.13;;;;;;;17.09;81.84;100207.91;5116896;27;20033;-68
2023/06/18 03:46:13;;;;;;;8.57;7.07;;;;;;;16.98;81.94;100192.06;5115556;27;20133;-69
2023/06/18 03:48:41;;;;;;;7.57;6.78;;;;;;;17.10;82.34;100209.63;5111856;27;20027;-68
2023/06/18 03:51:06;;;;;;;9.32;7.03;;;;;;;17.09;81.91;100198.97;5117388;27;20047;-68
2023/06/18 03:53:36;;;;;;;9.80;6.97;;;;;;;17.06;82.24;100191.19;5120754;27;20074;-68
2023/06/18 03:56:03;;;;;;;8.68;7.18;;;;;;;17.26;81.77;100205.94;5122034;27;20040;-68
2023/06/18 03:58:29;;;;;;;8.00;6.93;;;;;;;17.25;81.67;100207.81;5128017;27;20050;-68
2023/06/18 04:00:55;;;;;;;7.63;6.70;;;;;;;17.31;81.63;100206.22;5116888;27;20390;-68
2023/06/18 04:03:22;;;;;;;9.82;7.13;;;;;;;17.37;80.83;100205.50;5113139;27;20035;-68
2023/06/18 04:05:48;;;;;;;8.13;6.70;;;;;;;17.35;81.07;100196.75;5116803;27;20051;-68
2023/06/18 04:08:14;;;;;;;8.80;7.00;;;;;;;17.50;80.96;100211.22;5112504;27;20725;-69
2023/06/18 04:10:40;;;;;;;7.38;6.13;;;;;;;17.55;80.61;100206.09;5116256;27;20027;-68
2023/06/18 04:13:06;;;;;;;9.68;6.85;;;;;;;17.65;80.30;100214.81;5112027;27;20498;-69
2023/06/18 04:15:31;;;;;;;11.02;6.30;;;;;;;17.61;79.80;100194.53;5120759;27;20028;-69
2023/06/18 04:17:57;;;;;;;6.65;5.95;;;;;;;17.82;79.37;100210.94;5112455;27;20106;-66
2023/06/18 04:20:22;;;;;;;10.50;6.30;;;;;;;17.94;78.78;100214.91;5110322;27;20481;-68
2023/06/18 04:22:48;;;;;;;7.03;6.28;;;;;;;18.02;78.31;100217.53;5116964;27;20044;-68
2023/06/18 04:25:13;;;;;;;9.05;6.15;;;;;;;18.11;77.98;100224.56;5118154;27;20020;-68
2023/06/18 04:27:39;;;;;;;6.93;5.50;;;;;;;18.18;77.10;100217.38;5114366;27;20035;-68
2023/06/18 04:30:07;;;;;;;8.43;6.13;;;;;;;18.29;77.16;100224.22;5122895;27;20035;-68
2023/06/18 04:32:33;;;;;;;7.50;6.38;;;;;;;18.36;76.78;100231.47;5121011;27;20027;-68
2023/06/18 04:34:58;;;;;;;6.97;5.70;;;;;;;18.39;76.52;100220.22;5117212;27;20058;-68
2023/06/18 04:37:24;;;;;;;6.70;5.93;;;;;;;18.48;76.61;100235.41;5119138;27;20067;-68
2023/06/18 04:39:49;;;;;;;6.93;6.15;;;;;;;18.50;76.23;100227.91;5115441;27;20126;-68
2023/06/18 04:42:15;;;;;;;6.50;5.78;;;;;;;18.42;76.84;100203.56;5120021;27;20023;-67
2023/06/18 04:44:41;;;;;;;7.15;5.60;;;;;;;18.68;76.55;100235.66;5120107;27;20047;-68
2023/06/18 04:47:07;;;;;;;8.38;6.80;;;;;;;18.75;75.81;100236.59;5122228;27;20038;-68
2023/06/18 04:49:32;;;;;;;7.55;6.18;;;;;;;18.71;75.10;100225.28;5119700;27;20027;-69
2023/06/18 04:51:58;;;;;;;6.28;5.68;;;;;;;18.83;74.69;100241.94;5110564;27;20024;-68
2023/06/18 04:54:23;;;;;;;6.55;5.90;;;;;;;18.88;75.14;100236.78;5124518;27;20110;-68
2023/06/18 04:56:48;;;;;;;6.43;5.40;;;;;;;18.97;75.12;100238.34;5124995;27;20019;-69
2023/06/18 04:59:14;;;;;;;5.93;5.32;;;;;;;19.03;74.73;100246.59;5113319;27;20031;-68
2023/06/18 05:01:39;;;;;;;6.40;5.63;;;;;;;19.17;74.55;100245.72;5114937;27;20020;-68
2023/06/18 05:04:05;;;;;;;6.95;5.80;;;;;;;19.28;73.55;100258.84;5113643;27;20478;-69
2023/06/18 05:06:31;;;;;;;6.53;5.88;;;;;;;19.36;73.26;100258.75;5122817;27;20464;-69
2023/06/18 05:08:56;;;;;;;7.50;5.82;;;;;;;19.46;72.77;100263.84;5122374;27;20035;-68
2023/06/18 05:11:22;;;;;;;6.28;5.63;;;;;;;19.54;71.91;100253.69;5112307;27;20035;-69
2023/06/18 05:13:47;;;;;;;8.40;5.60;;;;;;;19.62;71.62;100261.75;5124158;27;20023;-67
2023/06/18 05:16:13;;;;;;;7.65;5.80;;;;;;;19.67;71.20;100256.53;5119851;27;20027;-68
2023/06/18 05:18:38;;;;;;;6.70;5.95;;;;;;;19.80;71.58;100266.72;5120545;27;20032;-69
2023/06/18 05:21:04;;;;;;;10.10;6.43;;;;;;;19.84;71.26;100248.97;5115188;27;20035;-68
2023/06/18 05:23:30;;;;;;;10.48;5.82;;;;;;;19.87;71.09;100249.41;5125025;27;20035;-67
2023/06/18 05:25:55;;;;;;;8.40;5.68;;;;;;;19.91;70.71;100253.44;5118949;27;20031;-70
2023/06/18 05:28:21;;;;;;;7.43;5.80;;;;;;;19.94;70.52;100250.31;5113821;27;20109;-67
2023/06/18 05:30:46;;;;;;;6.93;6.22;;;;;;;20.11;70.47;100273.53;5117939;27;20030;-69
2023/06/18 05:33:12;;;;;;;6.18;5.38;;;;;;;20.20;70.62;100257.88;5118569;27;20026;-69
2023/06/18 05:35:38;;;;;;;7.32;5.55;;;;;;;20.25;70.36;100260.03;5116824;27;20023;-67
2023/06/18 05:38:03;;;;;;;7.63;5.85;;;;;;;20.37;69.74;100270.16;5123838;27;20091;-68
2023/06/18 05:40:29;;;;;;;5.85;5.25;;;;;;;20.43;68.83;100265.78;5111284;27;20079;-69
2023/06/18 05:42:55;;;;;;;6.40;5.80;;;;;;;20.56;67.98;100263.16;5118692;27;20031;-68
2023/06/18 05:45:21;;;;;;;6.32;5.72;;;;;;;20.58;67.49;100252.91;5125863;27;20035;-69
2023/06/18 05:47:46;;;;;;;6.97;5.65;;;;;;;20.72;67.09;100274.59;5120057;27;21238;-69
2023/06/18 05:50:12;;;;;;;7.93;5.80;;;;;;;20.87;66.00;100279.91;5121531;27;20023;-69
2023/06/18 05:52:37;;;;;;;6.88;5.95;;;;;;;20.93;66.01;100281.84;5115699;27;20035;-69
2023/06/18 05:55:06;;;;;;;5.40;4.90;;;;;;;21.01;65.60;100285.28;5115078;27;20062;-68
2023/06/18 05:57:32;;;;;;;5.93;5.32;;;;;;;21.14;64.59;100288.06;5110540;27;20501;-69
2023/06/18 05:59:57;;;;;;;5.55;4.97;;;;;;;21.22;64.29;100281.59;5116620;27;20031;-70
2023/06/18 06:02:22;;;;;;;5.72;5.15;;;;;;;21.34;64.27;100294.44;5115351;27;20064;-69
2023/06/18 06:04:48;;;;;;;6.20;5.13;;;;;;;21.41;64.09;100292.56;5116287;27;20027;-69
2023/06/18 06:07:13;;;;;;;6.20;4.70;;;;;;;21.52;62.96;100293.88;5114610;27;20020;-69
2023/06/18 06:09:40;;;;;;;5.25;4.75;;;;;;;21.64;62.46;100297.69;5112649;27;20079;-69
2023/06/18 06:12:05;;;;;;;5.00;4.60;;;;;;;21.74;61.18;100309.09;5109791;27;20043;-68
2023/06/18 06:14:34;;;;;;;5.72;3.88;;;;;;;21.81;59.67;100302.59;5110111;27;20019;-68
2023/06/18 06:16:59;;;;;;;4.70;4.20;;;;;;;21.98;59.04;100308.47;5117263;27;20027;-68
2023/06/18 06:19:26;;;;;;;4.65;4.25;;;;;;;22.07;58.57;100305.34;5115702;27;20023;-68
2023/06/18 06:21:51;;;;;;;4.45;4.05;;;;;;;22.15;56.69;100305.13;5118293;27;20058;-69
2023/06/18 06:24:16;;;;;;;5.40;4.88;;;;;;;22.09;56.65;100303.22;5117902;27;20043;-68
2023/06/18 06:26:42;;;;;;;6.55;4.57;;;;;;;22.10;56.28;100296.75;5117595;27;20023;-69
2023/06/18 06:29:08;;;;;;;5.00;4.50;;;;;;;22.11;56.27;100286.63;5115654;27;20042;-68
2023/06/18 06:31:33;;;;;;;6.20;4.65;;;;;;;22.17;56.17;100288.53;5123654;27;20023;-69
2023/06/18 06:33:59;;;;;;;5.30;4.10;;;;;;;22.36;56.01;100309.56;5115171;28;20030;-69
2023/06/18 06:36:25;;;;;;;6.25;4.97;;;;;;;22.44;55.98;100313.97;5127216;27;20023;-68
2023/06/18 06:38:51;;;;;;;4.32;3.92;;;;;;;22.52;56.36;100311.03;5119177;28;20497;-67
2023/06/18 06:41:16;;;;;;;6.35;4.35;;;;;;;22.58;56.16;100311.06;5125466;27;20035;-68
2023/06/18 06:43:42;;;;;;;4.80;4.10;;;;;;;22.68;55.79;100307.88;5118181;28;20070;-68
2023/06/18 06:46:08;;;;;;;4.90;4.40;;;;;;;22.74;55.08;100302.41;5124500;28;20042;-68
2023/06/18 06:48:34;;;;;;;4.53;3.95;;;;;;;22.90;54.77;100301.94;5117539;27;20154;-69
2023/06/18 06:50:59;;;;;;;5.88;4.00;;;;;;;22.97;53.92;100310.13;5120085;28;20110;-68
2023/06/18 06:53:25;;;;;;;4.60;4.10;;;;;;;22.99;53.76;100305.28;5119949;27;20374;-69
2023/06/18 06:55:50;;;;;;;4.75;4.10;;;;;;;23.00;53.78;100293.28;5113950;28;20023;-68
2023/06/18 06:58:15;;;;;;;3.78;3.45;;;;;;;23.22;53.08;100316.56;5114102;28;20432;-69
2023/06/18 07:00:41;;;;;;;4.72;4.25;;;;;;;23.23;53.02;100307.34;5121776;27;20500;-69
2023/06/18 07:03:06;;;;;;;4.50;4.10;;;;;;;23.32;52.92;100315.09;5116754;28;20031;-69
2023/06/18 07:05:32;;;;;;;4.30;3.90;;;;;;;23.40;52.44;100311.25;5115909;28;20032;-68
2023/06/18 07:07:57;;;;;;;4.68;4.10;;;;;;;23.44;52.32;100310.59;5111459;28;20030;-69
2023/06/18 07:10:22;;;;;;;4.38;3.97;;;;;;;23.52;51.79;100309.53;5118874;27;20019;-69
2023/06/18 07:12:48;;;;;;;4.68;4.07;;;;;;;23.62;51.37;100307.16;5120367;28;20066;-69
2023/06/18 07:15:14;;;;;;;6.10;4.30;;;;;;;23.67;51.27;100310.91;5110038;28;20047;-69
2023/06/18 07:17:39;;;;;;;4.28;3.85;;;;;;;23.66;50.64;100309.22;5117591;27;20034;-71
2023/06/18 07:20:05;;;;;;;5.40;4.05;;;;;;;23.64;50.49;100305.84;5118989;28;20031;-68
2023/06/18 07:22:31;;;;;;;5.47;4.20;;;;;;;23.72;50.52;100316.56;5114091;28;20039;-70
2023/06/18 07:24:58;;;;;;;6.50;3.90;;;;;;;23.79;50.65;100309.16;5111014;27;20043;-69
2023/06/18 07:27:24;;;;;;;4.22;3.70;;;;;;;23.84;51.17;100311.25;5113296;28;20032;-69
2023/06/18 07:29:50;;;;;;;6.07;4.03;;;;;;;23.84;50.43;100295.66;5117860;27;20032;-69
2023/06/18 07:32:16;;;;;;;5.00;4.30;;;;;;;23.93;50.16;100307.19;5112475;27;20102;-69
2023/06/18 07:34:41;;;;;;;4.50;3.97;;;;;;;23.90;49.81;100302.97;5116972;27;20032;-69
2023/06/18 07:37:07;;;;;;;4.35;3.95;;;;;;;23.97;50.02;100306.56;5124156;27;20020;-69
2023/06/18 07:39:32;;;;;;;4.10;3.70;;;;;;;24.01;50.56;100296.81;5115983;27;20115;-69
2023/06/18 07:41:58;;;;;;;4.40;4.00;;;;;;;24.12;50.73;100303.50;5117940;27;20046;-68
2023/06/18 07:44:32;;;;;;;4.90;4.22;;;;;;;23.96;50.73;100269.22;5116197;27;20450;-69
2023/06/18 07:46:57;;;;;;;;;;;;;;;24.12;50.24;100298.00;5119572;27;20027;-69
2023/06/18 07:49:23;;;;;;;5.25;4.10;;;;;;;24.17;50.19;100300.91;5117236;27;19920;-69
2023/06/18 07:51:48;;;;;;;4.88;4.32;;;;;;;24.21;49.90;100302.97;5113867;27;20024;-70
2023/06/18 07:54:34;;;;;;;4.93;4.13;;;;;;;24.25;49.70;100287.75;5120314;27;20027;-73
2023/06/18 07:57:00;;;;;;;4.20;3.80;;;;;;;24.31;50.11;100275.91;5103320;27;20031;-69
2023/06/18 07:59:26;;;;;;;6.80;4.35;;;;;;;24.48;49.95;100291.78;5116985;27;20023;-69
2023/06/18 08:01:52;;;;;;;5.00;3.88;;;;;;;24.54;50.32;100288.16;5119381;27;20413;-69
2023/06/18 08:04:17;;;;;;;4.70;4.30;;;;;;;24.55;49.09;100287.94;5119431;27;20082;-69
2023/06/18 08:06:43;;;;;;;4.00;3.60;;;;;;;24.58;48.66;100282.00;5120257;27;20023;-69
2023/06/18 08:09:09;;;;;;;4.25;3.75;;;;;;;24.73;48.32;100287.16;5120363;27;20058;-68
2023/06/18 08:11:34;;;;;;;5.72;4.40;;;;;;;24.76;48.07;100295.75;5114093;27;20027;-69
2023/06/18 08:14:28;;;;;;;5.90;4.45;;;;;;;24.77;47.39;100299.34;5115396;27;20049;-71
2023/06/18 08:16:54;;;;;;;4.35;4.05;;;;;;;24.82;47.71;100289.38;5125607;27;20035;-66
2023/06/18 08:19:19;;;;;;;5.85;4.10;;;;;;;24.86;47.43;100290.56;5112619;27;20031;-67
2023/06/18 08:21:45;;;;;;;4.85;4.43;;;;;;;24.79;46.55;100289.00;5119512;27;20503;-66
2023/06/18 08:24:11;;;;;;;4.70;4.30;;;;;;;24.88;47.16;100295.84;5120477;27;20103;-67
2023/06/18 08:26:36;;;;;;;4.38;3.97;;;;;;;24.90;46.52;100285.47;5111467;27;20505;-66
2023/06/18 08:29:02;;;;;;;4.35;3.58;;;;;;;24.94;46.07;100289.44;5115517;27;20518;-68
2023/06/18 08:31:28;;;;;;;4.35;3.72;;;;;;;25.02;46.12;100298.22;5116763;27;20502;-68
2023/06/18 08:33:53;;;;;;;5.30;4.00;;;;;;;25.00;46.11;100291.28;5113259;27;20130;-68
2023/06/18 08:36:30;;;;;;;4.53;3.65;;;;;;;24.97;45.88;100289.00;5119493;27;20467;-69
2023/06/18 08:38:56;;;;;;;3.70;3.40;;;;;;;25.02;45.18;100289.16;5114475;27;20122;-67
2023/06/18 08:41:21;;;;;;;3.53;3.22;;;;;;;25.07;44.16;100259.94;5118589;27;20168;-67
2023/06/18 08:43:47;;;;;;;4.05;3.65;;;;;;;25.26;44.31;100282.72;5124207;27;20051;-70
2023/06/18 08:46:14;;;;;;;4.10;3.67;;;;;;;25.28;45.31;100283.34;5109527;27;20027;-68
2023/06/18 08:48:55;;;;;;;6.35;3.88;;;;;;;25.22;45.13;100274.13;5108873;27;20032;-68
2023/06/18 08:51:21;;;;;;;4.00;3.70;;;;;;;25.18;45.07;100269.31;5120604;27;20034;-67
2023/06/18 08:54:04;;;;;;;5.72;3.60;;;;;;;25.32;44.53;100284.59;5114110;27;20550;-67
2023/06/18 08:56:31;;;;;;;4.13;3.72;;;;;;;25.31;44.55;100282.91;5121680;27;20028;-68
2023/06/18 08:58:57;;;;;;;6.35;3.80;;;;;;;25.17;45.26;100259.41;5115805;27;20096;-67
2023/06/18 09:01:25;;;;;;;5.35;4.00;;;;;;;25.34;45.24;100279.72;5114581;27;20044;-66
2023/06/18 09:03:53;;;;;;;5.13;3.40;;;;;;;25.35;44.82;100274.00;5118102;27;20027;-67
2023/06/18 09:06:18;;;;;;;4.18;3.60;;;;;;;25.38;44.78;100283.66;5111599;27;20043;-67
2023/06/18 09:08:57;;;;;;;4.05;3.63;;;;;;;25.42;44.51;100272.00;5113135;27;20726;-71
2023/06/18 09:11:23;;;;;;;5.00;3.30;;;;;;;25.52;44.63;100285.16;5113017;27;20039;-67
2023/06/18 09:14:15;;;;;;;5.63;3.92;;;;;;;25.57;44.18;100280.63;5109921;27;20031;-69
2023/06/18 09:16:41;;;;;;;4.18;3.78;;;;;;;25.64;45.31;100281.41;5112892;27;20028;-68
2023/06/18 09:19:07;;;;;;;5.10;3.95;;;;;;;25.54;45.74;100261.06;5114118;27;20474;-66
2023/06/18 09:21:43;;;;;;;5.00;3.15;;;;;;;25.75;44.38;100290.75;5114264;27;20043;-67
2023/06/18 09:24:16;;;;;;;3.72;3.00;;;;;;;25.70;43.86;100293.38;5112432;27;20034;-68
2023/06/18 09:26:42;;;;;;;4.38;3.63;;;;;;;25.72;44.72;100291.22;5110760;27;20031;-67
2023/06/18 09:29:09;;;;;;;4.28;3.65;;;;;;;25.64;44.77;100264.94;5112351;27;20256;-67
2023/06/18 09:31:37;;;;;;;4.15;3.75;;;;;;;25.82;44.48;100292.34;5114252;27;20035;-68
2023/06/18 09:34:18;;;;;;;3.33;3.03;;;;;;;25.90;44.58;100288.41;5111849;27;20126;-67
2023/06/18 09:36:46;;;;;;;3.50;3.20;;;;;;;25.94;44.39;100286.88;5114605;27;20035;-67
2023/06/18 09:39:21;;;;;;;5.10;3.20;;;;;;;26.03;43.64;100283.59;5116147;27;20062;-67
2023/06/18 09:41:49;;;;;;;3.53;3.17;;;;;;;26.03;43.48;100288.25;5107047;27;20134;-68
2023/06/18 09:44:15;;;;;;;4.88;3.35;;;;;;;25.97;43.06;100261.69;5118280;27;20770;-67
2023/06/18 09:46:46;;;;;;;3.55;3.25;;;;;;;26.05;43.25;100275.94;5119298;27;20726;-66
2023/06/18 09:49:15;;;;;;;3.67;3.28;;;;;;;26.07;42.67;100268.31;5115562;27;20022;-68
2023/06/18 09:51:52;;;;;;;3.95;3.30;;;;;;;26.10;42.50;100267.84;5114993;27;20042;-73
2023/06/18 09:54:18;;;;;;;3.38;3.08;;;;;;;26.17;42.73;100273.19;5112147;27;20066;-67
2023/06/18 09:57:00;;;;;;;3.95;3.53;;;;;;;26.25;42.43;100278.38;5113352;27;20071;-68
2023/06/18 09:59:27;;;;;;;3.80;3.28;;;;;;;26.35;41.21;100273.94;5115263;27;20565;-68
2023/06/18 10:01:54;;;;;;;4.18;3.70;;;;;;;26.36;41.46;100264.63;5111679;27;20047;-69
2023/06/18 10:04:20;;;;;;;3.33;3.00;;;;;;;26.36;41.51;100261.03;5112550;27;20102;-68
2023/06/18 10:06:55;;;;;;;4.00;3.20;;;;;;;26.50;41.28;100262.47;5115112;27;20135;-67
2023/06/18 10:09:21;;;;;;;4.32;3.20;;;;;;;26.60;40.87;100262.72;5112114;27;20024;-68
2023/06/18 10:11:54;;;;;;;4.13;3.42;;;;;;;26.63;40.77;100262.25;5117743;27;20065;-68
2023/06/18 10:14:23;;;;;;;4.32;3.17;;;;;;;26.67;40.68;100262.63;5102587;27;20051;-68
2023/06/18 10:16:51;;;;;;;4.07;3.20;;;;;;;26.57;39.89;100246.69;5116704;27;20588;-67
2023/06/18 10:19:29;;;;;;;4.07;3.60;;;;;;;26.69;39.66;100261.31;5112819;27;20031;-68
2023/06/18 10:22:00;;;;;;;3.60;3.00;;;;;;;26.74;38.67;100257.81;5113037;27;20108;-67
2023/06/18 10:24:39;;;;;;;3.50;3.20;;;;;;;26.73;38.78;100268.03;5114898;27;20051;-67
2023/06/18 10:27:06;;;;;;;4.93;3.38;;;;;;;26.75;38.21;100268.59;5112135;27;20054;-68
2023/06/18 10:29:33;;;;;;;3.90;2.88;;;;;;;26.76;38.01;100252.94;5110501;27;20036;-68
2023/06/18 10:32:01;;;;;;;4.07;3.30;;;;;;;26.97;37.69;100269.66;5113725;28;20096;-68
2023/06/18 10:34:27;;;;;;;4.22;3.42;;;;;;;27.04;37.28;100266.75;5113036;27;20034;-68
2023/06/18 10:36:55;;;;;;;3.20;2.90;;;;;;;26.98;37.70;100257.56;5113552;27;20040;-67
2023/06/18 10:39:21;;;;;;;3.53;3.17;;;;;;;27.11;37.41;100265.53;5110061;28;20019;-68
2023/06/18 10:41:47;;;;;;;3.60;3.30;;;;;;;27.05;37.64;100240.91;5112522;27;20760;-68
2023/06/18 10:44:12;;;;;;;4.18;3.30;;;;;;;27.10;38.12;100255.63;5117010;28;20031;-68
2023/06/18 10:46:38;;;;;;;4.78;2.97;;;;;;;27.19;37.61;100261.59;5113208;28;20034;-68
2023/06/18 10:49:16;;;;;;;4.30;2.83;;;;;;;27.27;37.44;100259.31;5109264;27;20036;-68
2023/06/18 10:52:05;;;;;;;2.83;2.50;;;;;;;27.36;36.80;100257.84;5115580;28;20054;-69
2023/06/18 10:54:30;;;;;;;3.70;2.80;;;;;;;27.34;36.82;100254.50;5098081;28;20317;-69
2023/06/18 10:56:58;;;;;;;3.50;3.20;;;;;;;27.36;36.59;100255.09;5103937;28;20027;-69
2023/06/18 10:59:36;;;;;;;3.58;3.25;;;;;;;27.39;37.27;100251.00;5113006;27;20051;-69
2023/06/18 11:02:03;;;;;;;4.18;3.42;;;;;;;27.29;37.37;100237.88;5112118;28;20114;-67
2023/06/18 11:04:33;;;;;;;3.63;3.33;;;;;;;27.33;36.92;100246.47;5105777;28;20044;-67
2023/06/18 11:07:11;;;;;;;4.13;3.47;;;;;;;27.24;37.20;100243.25;5108887;27;20031;-68
2023/06/18 11:09:46;;;;;;;3.50;3.20;;;;;;;27.14;36.79;100220.19;5110403;27;20460;-67
2023/06/18 11:12:28;;;;;;;3.75;3.20;;;;;;;27.23;36.77;100225.06;5113088;27;20516;-67
2023/06/18 11:15:14;;;;;;;3.80;3.25;;;;;;;27.17;36.85;100228.78;5114022;27;20036;-67
2023/06/18 11:17:42;;;;;;;3.42;3.08;;;;;;;27.23;37.04;100229.72;5116436;27;20034;-67
2023/06/18 11:20:10;;;;;;;3.55;3.25;;;;;;;27.29;36.47;100235.13;5116958;27;20427;-67
2023/06/18 11:22:37;;;;;;;3.30;3.00;;;;;;;27.30;36.98;100233.19;5112414;27;20134;-67
2023/06/18 11:25:06;;;;;;;3.47;3.17;;;;;;;27.29;36.82;100229.63;5114070;27;20051;-67